Flight Track Log - Related Links

Times and Time Zones

All times are in EDT time to prevent confusion due to time zone crossing. See the AAL1459 flight status page for this flight to view local times or setup timezone preferences in your user account.

Time Position Orientation Groundspeed Altitude Reporting Facility
EDT Latitude Longitude Course Direction KTS MPH feet Rate Location/Type
Sat 07:26:03 PM 41.9428 -87.9131 261° West 167 192 1,700  Level Chicago Center
Sat 07:27:05 PM 41.8928 -87.9739 222° Southwest 225 259 3,500 2,390 Climbing Chicago Center
Sat 07:28:00 PM 41.9325 -88.3377 255° West  Level FlightAware Approximate
Sat 07:28:06 PM 41.8372 -88.0408 222° Southwest 259 298 6,600  Level Chicago Center
Sat 07:29:00 PM 41.9147 -88.4837 261° West  Level FlightAware Approximate
Sat 07:29:08 PM 41.8139 -88.1350 252° West 281 323 9,400  Level Chicago Center
Sat 07:30:00 PM 41.8974 -88.6309 261° West  Level FlightAware Approximate
Sat 07:30:10 PM 41.8094 -88.2436 267° West 291 335 11,700  Level Chicago Center
Sat 07:31:00 PM 41.8802 -88.7779 261° West  Level FlightAware Approximate
Sat 07:31:11 PM 41.8036 -88.3728 267° West 337 388 13,300  Level Chicago Center
Sat 07:32:13 PM 41.8028 -88.5122 270° West 374 430 15,600 2,390 Climbing Chicago Center
Sat 07:33:14 PM 41.8097 -88.6861 273° West 392 451 18,200 2,195 Climbing Chicago Center
Sat 07:34:16 PM 41.8164 -88.8356 273° West 404 465 20,100 1,694 Climbing Chicago Center
Sat 07:35:18 PM 41.8242 -88.9919 274° West 419 482 21,700 1,756 Climbing Chicago Center
Sat 07:36:19 PM 41.8319 -89.1536 274° West 435 501 23,700 1,610 Climbing Chicago Center
Sat 07:37:21 PM 41.8411 -89.3178 274° West 444 511 25,000 1,512 Climbing Chicago Center
Sat 07:38:22 PM 41.8478 -89.5264 273° West 463 533 26,800 1,659 Climbing Chicago Center
Sat 07:39:24 PM 41.8542 -89.7019 273° West 474 545 28,400 1,403 Climbing Chicago Center
Sat 07:40:26 PM 41.8603 -89.8778 273° West 475 547 29,700 1,512 Climbing Chicago Center
Sat 07:41:27 PM 41.8700 -90.0631 274° West 475 547 31,500 1,561 Climbing Chicago Center
Sat 07:42:29 PM 41.8756 -90.2364 273° West 471 542 32,900 1,258 Climbing Chicago Center
Sat 07:43:31 PM 41.8817 -90.4067 273° West 463 533 34,100 1,024 Climbing Chicago Center
Sat 07:44:32 PM 41.8850 -90.5797 272° West 467 537 35,000 878 Climbing Chicago Center
Sat 07:45:34 PM 41.8889 -90.7583 272° West 480 552 35,900 919 Climbing Chicago Center
Sat 07:46:36 PM 41.8944 -90.9281 273° West 463 533 36,900 1,024 Climbing Chicago Center
Sat 07:47:37 PM 41.8992 -91.1336 272° West 462 532 38,000 537 Climbing Chicago Center
Sat 07:48:39 PM 41.9033 -91.3008 272° West 455 524 38,000  Level Chicago Center
Sat 07:49:41 PM 41.9072 -91.4717 272° West 458 527 38,000  Level Chicago Center
Sat 07:50:42 PM 41.9106 -91.6411 272° West 458 527 38,000  Level Chicago Center
Sat 07:51:44 PM 41.9147 -91.8119 272° West 459 528 38,000  Level Chicago Center
Sat 07:52:45 PM 41.9186 -91.9803 272° West 457 526 38,000  Level Chicago Center
Sat 07:53:47 PM 41.9203 -92.1497 271° West 456 525 38,000  Level Chicago Center
Sat 07:54:48 PM 41.9236 -92.3497 271° West 451 519 38,000  Level Chicago Center
Sat 07:55:50 PM 41.9258 -92.5192 271° West 454 522 38,000  Level Chicago Center
Sat 07:56:57 PM 41.9286 -92.6861 271° West 450 518 38,000  Level Minneapolis Center
Sat 07:57:53 PM 41.9306 -92.8503 271° West 447 514 38,000  Level Chicago Center
Sat 07:59:00 PM 41.9314 -93.0303 270° West 451 519 38,000  Level Minneapolis Center
Sat 08:00:01 PM 41.9333 -93.2253 271° West 444 511 38,000  Level Minneapolis Center
Sat 08:01:02 PM 41.9331 -93.3897 270° West 444 511 38,000  Level Minneapolis Center
Sat 08:02:04 PM 41.9344 -93.5508 271° West 440 506 38,000  Level Minneapolis Center
Sat 08:03:05 PM 41.9350 -93.7139 270° West 441 507 38,000  Level Minneapolis Center
Sat 08:04:06 PM 41.9361 -93.8750 271° West 436 502 38,000  Level Minneapolis Center
Sat 08:05:08 PM 41.9361 -94.0361 270° West 433 498 38,000  Level Minneapolis Center
Sat 08:06:09 PM 41.9361 -94.1989 270° West 438 504 38,000  Level Minneapolis Center
Sat 08:07:10 PM 41.9356 -94.3597 270° West 434 499 38,000  Level Minneapolis Center
Sat 08:08:12 PM 41.9353 -94.5536 270° West 434 499 38,000  Level Minneapolis Center
Sat 08:09:13 PM 41.9333 -94.7147 269° West 433 498 38,000  Level Minneapolis Center
Sat 08:10:14 PM 41.9342 -94.8772 270° West 435 501 38,000  Level Minneapolis Center
Sat 08:11:15 PM 41.9306 -95.0358 268° West 428 493 38,000  Level Minneapolis Center
Sat 08:12:17 PM 41.9292 -95.1967 269° West 429 494 38,000  Level Minneapolis Center
Sat 08:13:18 PM 41.9286 -95.3594 270° West 436 502 38,000  Level Minneapolis Center
Sat 08:14:19 PM 41.9261 -95.5194 269° West 433 498 38,000  Level Minneapolis Center
Sat 08:15:20 PM 41.9244 -95.6786 269° West 429 494 38,000  Level Minneapolis Center
Sat 08:16:22 PM 41.9214 -95.8375 269° West 429 494 38,000  Level Minneapolis Center
Sat 08:17:23 PM 41.9181 -96.0267 269° West 428 493 38,000  Level Minneapolis Center
Sat 08:18:24 PM 41.9150 -96.1856 269° West 430 495 38,000  Level Minneapolis Center
Sat 08:19:26 PM 41.9122 -96.3425 269° West 426 490 38,000  Level Minneapolis Center
Sat 08:20:27 PM 41.9089 -96.4997 268° West 425 489 38,000  Level Minneapolis Center
Sat 08:21:28 PM 41.9053 -96.6561 268° West 424 488 38,000  Level Minneapolis Center
Sat 08:22:30 PM 41.9019 -96.8117 268° West 420 483 38,000  Level Minneapolis Center
Sat 08:23:31 PM 41.8978 -96.9672 268° West 419 482 38,000  Level Minneapolis Center
Sat 08:24:33 PM 41.8928 -97.1511 268° West 414 476 38,000  Level Minneapolis Center
Sat 08:25:34 PM 41.8892 -97.3053 268° West 414 476 38,000  Level Minneapolis Center
Sat 08:26:36 PM 41.8853 -97.4564 268° West 410 472 38,000  Level Minneapolis Center
Sat 08:27:37 PM 41.8806 -97.6081 268° West 407 468 38,000  Level Minneapolis Center
Sat 08:28:39 PM 41.8747 -97.7592 267° West 408 470 38,000  Level Minneapolis Center
Sat 08:29:40 PM 41.8703 -97.9083 268° West 404 465 38,000  Level Minneapolis Center
Sat 08:30:42 PM 41.8647 -98.0575 267° West 401 461 38,000  Level Minneapolis Center
Sat 08:31:43 PM 41.8589 -98.2092 267° West 402 463 38,000  Level Minneapolis Center
Sat 08:32:44 PM 41.8547 -98.3567 268° West 400 460 38,000  Level Minneapolis Center
Sat 08:33:46 PM 41.8475 -98.5347 267° West 400 460 38,000  Level Minneapolis Center
Sat 08:34:47 PM 41.8406 -98.6839 266° West 401 461 38,000  Level Minneapolis Center
Sat 08:35:49 PM 41.8353 -98.8331 267° West 402 463 38,000  Level Minneapolis Center
Sat 08:36:47 PM 41.8292 -98.9864 267° West 407 468 38,000  Level Denver Center
Sat 08:37:52 PM 41.8217 -99.1353 266° West 406 467 38,000  Level Minneapolis Center
Sat 08:38:54 PM 41.8158 -99.2833 267° West 403 464 38,000  Level Minneapolis Center
Sat 08:39:51 PM 41.8078 -99.4306 266° West 399 459 38,000  Level Denver Center
Sat 08:40:53 PM 41.8003 -99.5769 266° West 395 455 38,000  Level Denver Center
Sat 08:41:54 PM 41.7931 -99.7200 266° West 388 447 38,000  Level Denver Center
Sat 08:42:56 PM 41.7844 -99.8847 266° West 387 445 38,000  Level Denver Center
Sat 08:43:57 PM 41.7778 -100.0244 266° West 390 449 38,000  Level Denver Center
Sat 08:44:59 PM 41.7694 -100.1883 266° West 395 455 38,000  Level Denver Center
Sat 08:46:00 PM 41.7617 -100.3286 266° West 395 455 38,000  Level Denver Center
Sat 08:47:02 PM 41.7531 -100.4694 265° West 396 456 38,000  Level Denver Center
Sat 08:48:03 PM 41.7458 -100.6319 267° West 394 453 38,000  Level Denver Center
Sat 08:49:05 PM 41.7369 -100.7728 265° West 396 456 38,000  Level Denver Center
Sat 08:50:06 PM 41.7269 -100.9344 265° West 392 451 38,000  Level Denver Center
Sat 08:51:08 PM 41.7186 -101.0731 265° West 391 450 38,000  Level Denver Center
Sat 08:52:09 PM 41.7083 -101.2339 265° West 389 448 38,000  Level Denver Center
Sat 08:53:10 PM 41.6997 -101.3719 265° West 389 448 38,000  Level Denver Center
Sat 08:54:12 PM 41.6914 -101.5122 265° West 396 456 38,000  Level Denver Center
Sat 08:55:13 PM 41.6797 -101.6733 265° West 391 450 38,000  Level Denver Center
Sat 08:56:15 PM 41.6694 -101.8131 264° West 395 455 38,000  Level Denver Center
Sat 08:57:16 PM 41.6597 -101.9744 265° West 392 451 38,000  Level Denver Center
Sat 08:58:18 PM 41.6478 -102.1142 264° West 396 456 38,000  Level Denver Center
Sat 08:59:19 PM 41.6389 -102.2750 266° West 391 450 38,000  Level Denver Center
Sat 09:00:20 PM 41.6275 -102.4131 264° West 391 450 38,000  Level Denver Center
Sat 09:01:22 PM 41.6167 -102.5511 264° West 390 449 38,000  Level Denver Center
Sat 09:02:23 PM 41.6056 -102.7050 265° West 393 452 38,000  Level Denver Center
Sat 09:03:25 PM 41.5947 -102.8414 264° West 387 445 38,000  Level Denver Center
Sat 09:04:26 PM 41.5819 -103.0022 264° West 389 448 38,000  Level Denver Center
Sat 09:05:28 PM 41.5711 -103.1383 264° West 387 445 38,000  Level Denver Center
Sat 09:06:29 PM 41.5586 -103.2994 264° West 390 449 38,000  Level Denver Center
Sat 09:07:30 PM 41.5472 -103.4367 264° West 388 447 38,000  Level Denver Center
Sat 09:08:32 PM 41.5347 -103.5742 263° West 390 449 38,000  Level Denver Center
Sat 09:09:33 PM 41.5219 -103.7353 264° West 391 450 38,000  Level Denver Center
Sat 09:10:35 PM 41.5097 -103.8758 263° West 396 456 38,000  Level Denver Center
Sat 09:11:36 PM 41.4972 -104.0389 264° West 396 456 38,000  Level Denver Center
Sat 09:12:37 PM 41.4928 -104.1781 268° West 393 452 38,000  Level Denver Center
Sat 09:13:39 PM 41.4900 -104.3189 269° West 397 457 38,000  Level Denver Center
Sat 09:14:40 PM 41.4847 -104.4828 268° West 396 456 38,000  Level Denver Center
Sat 09:15:42 PM 41.4803 -104.6231 268° West 395 455 38,000  Level Denver Center
Sat 09:16:43 PM 41.4742 -104.7869 267° West 395 455 38,000  Level Denver Center
Sat 09:17:45 PM 41.4700 -104.9297 268° West 401 461 38,000  Level Denver Center
Sat 09:18:46 PM 41.4644 -105.0728 267° West 401 461 38,000  Level Denver Center
Sat 09:19:47 PM 41.4589 -105.2389 267° West 402 463 38,000  Level Denver Center
Sat 09:20:49 PM 41.4536 -105.3828 267° West 405 466 38,000  Level Denver Center
Sat 09:21:50 PM 41.4472 -105.5275 267° West 408 470 38,000  Level Denver Center
Sat 09:22:51 PM 41.4406 -105.6947 267° West 405 466 38,000  Level Denver Center
Sat 09:23:53 PM 41.4347 -105.8369 267° West 403 464 38,000  Level Denver Center
Sat 09:25:06 PM 41.4267 -106.0011 266° West 399 459 38,000  Level Denver Center
Sat 09:26:08 PM 41.4194 -106.1644 267° West 395 455 38,000  Level Denver Center
Sat 09:27:09 PM 41.4117 -106.3267 266° West 395 455 38,000  Level Denver Center
Sat 09:28:11 PM 41.4042 -106.4647 266° West 392 451 38,000  Level Denver Center
Sat 09:29:12 PM 41.3986 -106.6119 267° West 393 452 38,000  Level Denver Center
Sat 09:30:13 PM 41.3894 -106.7736 266° West 394 453 38,000  Level Denver Center
Sat 09:31:15 PM 41.3819 -106.9119 266° West 393 452 38,000  Level Denver Center
Sat 09:32:16 PM 41.3739 -107.0503 266° West 393 452 38,000  Level Denver Center
Sat 09:33:17 PM 41.3642 -107.2122 265° West 394 453 38,000  Level Denver Center
Sat 09:34:19 PM 41.3592 -107.3508 267° West 392 451 38,000  Level Denver Center
Sat 09:35:20 PM 41.3497 -107.5161 266° West 400 460 38,000  Level Denver Center
Sat 09:36:21 PM 41.3417 -107.6561 266° West 398 458 38,000  Level Denver Center
Sat 09:37:23 PM 41.3322 -107.7969 265° West 399 459 38,000  Level Denver Center
Sat 09:38:24 PM 41.3228 -107.9631 266° West 403 464 38,000  Level Denver Center
Sat 09:39:25 PM 41.3142 -108.1031 265° West 399 459 38,000  Level Denver Center
Sat 09:40:27 PM 41.3033 -108.2658 265° West 395 455 38,000  Level Denver Center
Sat 09:41:28 PM 41.2942 -108.4053 265° West 396 456 38,000  Level Denver Center
Sat 09:42:29 PM 41.2856 -108.5439 265° West 394 453 38,000  Level Denver Center
Sat 09:43:30 PM 41.2739 -108.7039 265° West 390 449 38,000  Level Denver Center
Sat 09:44:32 PM 41.2644 -108.8414 265° West 388 447 38,000  Level Denver Center
Sat 09:45:41 PM 41.2519 -109.0022 264° West 386 444 38,000  Level Salt Lake Center
Sat 09:46:42 PM 41.2422 -109.1411 265° West 390 449 38,000  Level Salt Lake Center
Sat 09:47:43 PM 41.2306 -109.3036 265° West 391 450 38,000  Level Salt Lake Center
Sat 09:48:44 PM 41.2200 -109.4403 264° West 387 445 38,000  Level Salt Lake Center
Sat 09:49:45 PM 41.2106 -109.5775 265° West 390 449 38,000  Level Salt Lake Center
Sat 09:50:47 PM 41.1975 -109.7411 264° West 397 457 38,000  Level Salt Lake Center
Sat 09:51:48 PM 41.1864 -109.8825 264° West 401 461 38,000  Level Salt Lake Center
Sat 09:52:49 PM 41.1736 -110.0483 264° West 404 465 38,000  Level Salt Lake Center
Sat 09:53:50 PM 41.1625 -110.1889 264° West 402 463 38,000  Level Salt Lake Center
Sat 09:54:51 PM 41.1500 -110.3292 263° West 401 461 38,000  Level Salt Lake Center
Sat 09:55:52 PM 41.1372 -110.4931 264° West 400 460 38,000  Level Salt Lake Center
Sat 09:56:53 PM 41.1247 -110.6328 263° West 400 460 38,000  Level Salt Lake Center
Sat 09:57:55 PM 41.1131 -110.7722 264° West 399 459 38,000  Level Salt Lake Center
Sat 09:58:56 PM 41.0994 -110.9353 264° West 399 459 38,000  Level Salt Lake Center
Sat 09:59:57 PM 41.0861 -111.0811 263° West 400 460 38,000  Level Salt Lake Center
Sat 10:00:58 PM 41.0725 -111.2300 263° West 406 467 38,000  Level Salt Lake Center
Sat 10:01:59 PM 41.0592 -111.3781 263° West 407 468 38,000  Level Salt Lake Center
Sat 10:03:01 PM 41.0453 -111.5283 263° West 410 472 38,000  Level Salt Lake Center
Sat 10:04:02 PM 41.0314 -111.6803 263° West 414 476 38,000  Level Salt Lake Center
Sat 10:05:03 PM 41.0153 -111.8564 263° West 419 482 38,000  Level Salt Lake Center
Sat 10:06:04 PM 41.0000 -111.9975 262° West 417 480 38,000  Level Salt Lake Center
Sat 10:07:06 PM 40.9847 -112.1486 262° West 415 478 38,000  Level Salt Lake Center
Sat 10:08:07 PM 40.9683 -112.2994 262° West 416 479 38,000  Level Salt Lake Center
Sat 10:09:08 PM 40.9519 -112.4528 262° West 423 487 38,000  Level Salt Lake Center
Sat 10:10:09 PM 40.9353 -112.6044 262° West 419 482 38,000  Level Salt Lake Center
Sat 10:11:10 PM 40.9139 -112.7842 261° West 414 476 38,000  Level Salt Lake Center
Sat 10:12:11 PM 40.8975 -112.9328 262° West 408 470 38,000  Level Salt Lake Center
Sat 10:13:13 PM 40.8811 -113.0789 262° West 402 463 38,000  Level Salt Lake Center
Sat 10:14:14 PM 40.8628 -113.2272 261° West 411 473 38,000  Level Salt Lake Center
Sat 10:15:15 PM 40.8464 -113.3764 262° West 411 473 38,000  Level Salt Lake Center
Sat 10:16:16 PM 40.8267 -113.5275 260° West 417 480 38,000  Level Salt Lake Center
Sat 10:17:17 PM 40.8100 -113.6803 262° West 420 483 38,000  Level Salt Lake Center
Sat 10:18:19 PM 40.7892 -113.8328 260° West 422 486 38,000  Level Salt Lake Center
Sat 10:19:20 PM 40.7700 -113.9867 261° West 426 490 38,000  Level Salt Lake Center
Sat 10:20:21 PM 40.7506 -114.1389 260° West 422 486 38,000  Level Salt Lake Center
Sat 10:21:22 PM 40.7292 -114.3217 261° West 422 486 38,000  Level Salt Lake Center
Sat 10:22:23 PM 40.7111 -114.4733 261° West 421 484 38,000  Level Salt Lake Center
Sat 10:23:25 PM 40.6917 -114.6261 261° West 422 486 38,000  Level Salt Lake Center
Sat 10:24:26 PM 40.6717 -114.7753 260° West 417 480 38,000  Level Salt Lake Center
Sat 10:25:27 PM 40.6522 -114.9164 260° West 417 480 38,000  Level Salt Lake Center
Sat 10:26:28 PM 40.6303 -115.0836 260° West 414 476 38,000  Level Salt Lake Center
Sat 10:27:30 PM 40.6064 -115.2250 257° West 413 475 38,000  Level Salt Lake Center
Sat 10:28:31 PM 40.5872 -115.3683 260° West 415 478 38,000  Level Salt Lake Center
Sat 10:29:32 PM 40.5658 -115.5353 260° West 414 476 38,000  Level Salt Lake Center
Sat 10:30:33 PM 40.5444 -115.6767 259° West 414 476 38,000  Level Salt Lake Center
Sat 10:31:35 PM 40.5214 -115.8431 260° West 413 475 38,000  Level Salt Lake Center
Sat 10:32:36 PM 40.5006 -115.9850 259° West 415 478 38,000  Level Salt Lake Center
Sat 10:33:37 PM 40.4825 -116.1281 261° West 416 479 38,000  Level Salt Lake Center
Sat 10:34:39 PM 40.4600 -116.2939 260° West 414 476 38,000  Level Salt Lake Center
Sat 10:35:40 PM 40.4408 -116.4364 260° West 414 476 38,000  Level Salt Lake Center
Sat 10:36:41 PM 40.4181 -116.6008 260° West 411 473 38,000  Level Salt Lake Center
Sat 10:37:42 PM 40.3978 -116.7411 259° West 408 470 38,000  Level Salt Lake Center
Sat 10:38:44 PM 40.3775 -116.8781 259° West 413 475 38,000  Level Salt Lake Center
Sat 10:39:45 PM 40.3556 -117.0411 260° West 422 486 38,000  Level Salt Lake Center
Sat 10:40:46 PM 40.3319 -117.2056 259° West 413 475 38,000  Level Salt Lake Center
Sat 10:41:47 PM 40.3114 -117.3464 259° West 412 474 38,000  Level Salt Lake Center
Sat 10:42:49 PM 40.2911 -117.4853 259° West 408 470 38,000  Level Salt Lake Center
Sat 10:43:50 PM 40.2672 -117.6467 259° West 405 466 38,000  Level Salt Lake Center
Sat 10:44:51 PM 40.2467 -117.7842 259° West 403 464 38,000 -49 Level Salt Lake Center
Sat 10:45:52 PM 40.2228 -117.9447 259° West 403 464 37,900 -934 Descending Salt Lake Center
Sat 10:46:53 PM 40.2008 -118.0853 258° West 410 472 36,100 -1,854 Descending Salt Lake Center
Sat 10:47:55 PM 40.1803 -118.2286 259° West 419 482 34,100 -2,293 Descending Salt Lake Center
Sat 10:48:56 PM 40.1531 -118.3997 258° West 430 495 31,400 -2,459 Descending Salt Lake Center
Sat 10:49:57 PM 40.1286 -118.5483 258° West 436 502 29,100 -2,410 Descending Salt Lake Center
Sat 10:50:58 PM 40.0975 -118.7189 257° West 447 514 26,500 -2,213 Descending Salt Lake Center
Sat 10:51:59 PM 40.0669 -118.8783 256° West 455 524 24,600 -2,164 Descending Salt Lake Center
Sat 10:53:00 PM 40.0381 -119.0236 255° West 427 491 22,100 -2,488 Descending Salt Lake Center
Sat 10:54:02 PM 40.0103 -119.1642 256° West 407 468 19,500 -2,585 Descending Salt Lake Center
Sat 10:55:03 PM 39.9628 -119.2856 243° Southwest 385 443 16,800 -2,607 Descending Salt Lake Center
Sat 10:56:04 PM 39.9044 -119.3950 235° Southwest 372 428 14,200 -1,967 Descending Salt Lake Center
Sat 10:57:05 PM 39.8506 -119.4925 234° Southwest 344 396 12,800 -1,468 Descending Salt Lake Center
Sat 10:58:23 PM 39.7858 -119.6081 234° Southwest 289 333 10,800 -1,554 Descending Oakland Center
Sat 10:59:24 PM 39.7400 -119.6897 234° Southwest 282 325 9,200 -1,574 Descending Oakland Center

Login

Don't have an account? Register now (free) for customized features, flight alerts, and more!